ROMMA est une association bénévole à but non lucratif. Votre soutien est indispensable : ADHERER à ROMMA ou FAIRE un DON

Granges-lès-Beaumont - (26, Drôme)

Drôme des Collines (155 m)   Longitude: 04°58'E   Latitude: 45°03'N Station partenaire n°123
 

Détail journalier du     <<     >>

Température Precipitation Humidité Pression Vent Dir Rafale Dir. rafale Ensol.
Heure (°C) (mm) (%) (hPa) (km/h) (km/h) (min)
01:00 9.008210143NNE8SO0
02:00 9.108310145NNO11NNO0
03:00 8.108410132NNO8NNO0
04:00 8.308510132NNO6NNO0
05:00 8.408610135ENE11E0
06:00 8.208710134ENE11ENE0
07:00 7.908710133ENE8ENE0
08:00 9.208810134ENE15E0
09:00 10.708710143E8E0
10:00 12.808310143S8S0
11:00 13.208310143NNE8NNE0
12:00 14.407910144O11OSO0
13:00 16.407610136SSO19S10
14:00 15.90.27610139SSE24SSO20
15:00 18.30.26310129SSE26S20
16:00 18.006210129S23S40
17:00 17.906910123ENE8NE0
18:00 13.84.482101211N26ONO0
19:00 15.4072101311NNO24NNO40
20:00 13.3068101413N29NNE0
21:00 12.207110149NNE16NNO10
22:00 11.606810148NE16NE0
23:00 11.207210147NE18NE0
minuit 11.007310149NE19NE0

Graphique du 02-05-2019

 

Serveur OMMA